sensor_id;sensor_type;location;lat;lon;timestamp;P1;durP1;ratioP1;P2;durP2;ratioP2
28587;SDS011;15787;49.662;10.162;2023-07-08T00:01:29;7.88;;;4.35;;
28587;SDS011;15787;49.662;10.162;2023-07-08T00:04:02;6.80;;;4.45;;
28587;SDS011;15787;49.662;10.162;2023-07-08T00:06:36;7.50;;;3.85;;
28587;SDS011;15787;49.662;10.162;2023-07-08T00:09:10;7.40;;;4.20;;
28587;SDS011;15787;49.662;10.162;2023-07-08T00:11:43;10.70;;;4.80;;
28587;SDS011;15787;49.662;10.162;2023-07-08T00:14:16;10.23;;;4.57;;
28587;SDS011;15787;49.662;10.162;2023-07-08T00:16:51;8.25;;;4.70;;
28587;SDS011;15787;49.662;10.162;2023-07-08T00:19:24;7.38;;;4.35;;
28587;SDS011;15787;49.662;10.162;2023-07-08T00:21:56;7.45;;;4.05;;
28587;SDS011;15787;49.662;10.162;2023-07-08T00:24:29;9.45;;;4.10;;
28587;SDS011;15787;49.662;10.162;2023-07-08T00:27:02;6.15;;;4.28;;
28587;SDS011;15787;49.662;10.162;2023-07-08T00:29:36;7.35;;;4.10;;
28587;SDS011;15787;49.662;10.162;2023-07-08T00:32:11;7.68;;;4.65;;
28587;SDS011;15787;49.662;10.162;2023-07-08T00:34:45;7.38;;;4.22;;
28587;SDS011;15787;49.662;10.162;2023-07-08T00:37:18;8.55;;;5.35;;
28587;SDS011;15787;49.662;10.162;2023-07-08T00:39:51;8.70;;;3.83;;
28587;SDS011;15787;49.662;10.162;2023-07-08T00:42:24;6.63;;;4.00;;
28587;SDS011;15787;49.662;10.162;2023-07-08T00:44:58;7.30;;;4.32;;
28587;SDS011;15787;49.662;10.162;2023-07-08T00:47:32;8.77;;;4.00;;
28587;SDS011;15787;49.662;10.162;2023-07-08T00:50:07;8.77;;;4.00;;
28587;SDS011;15787;49.662;10.162;2023-07-08T00:52:44;9.98;;;4.50;;
28587;SDS011;15787;49.662;10.162;2023-07-08T00:55:17;9.75;;;4.50;;
28587;SDS011;15787;49.662;10.162;2023-07-08T00:57:51;8.00;;;4.15;;
28587;SDS011;15787;49.662;10.162;2023-07-08T01:00:24;10.38;;;4.47;;
28587;SDS011;15787;49.662;10.162;2023-07-08T01:02:59;7.50;;;4.68;;
28587;SDS011;15787;49.662;10.162;2023-07-08T01:05:34;6.53;;;3.92;;
28587;SDS011;15787;49.662;10.162;2023-07-08T01:08:10;6.90;;;4.18;;
28587;SDS011;15787;49.662;10.162;2023-07-08T01:10:43;7.35;;;4.45;;
28587;SDS011;15787;49.662;10.162;2023-07-08T01:13:20;7.10;;;4.40;;
28587;SDS011;15787;49.662;10.162;2023-07-08T01:15:54;9.50;;;5.10;;
28587;SDS011;15787;49.662;10.162;2023-07-08T01:18:28;8.15;;;4.28;;
28587;SDS011;15787;49.662;10.162;2023-07-08T01:21:03;7.40;;;4.35;;
28587;SDS011;15787;49.662;10.162;2023-07-08T01:23:39;10.55;;;4.68;;
28587;SDS011;15787;49.662;10.162;2023-07-08T01:26:12;7.07;;;4.60;;
28587;SDS011;15787;49.662;10.162;2023-07-08T01:28:45;8.55;;;4.78;;
28587;SDS011;15787;49.662;10.162;2023-07-08T01:31:19;10.38;;;4.57;;
28587;SDS011;15787;49.662;10.162;2023-07-08T01:33:52;7.07;;;4.50;;
28587;SDS011;15787;49.662;10.162;2023-07-08T01:36:28;9.48;;;4.35;;
28587;SDS011;15787;49.662;10.162;2023-07-08T01:39:05;8.00;;;4.80;;
28587;SDS011;15787;49.662;10.162;2023-07-08T01:41:38;8.88;;;4.88;;
28587;SDS011;15787;49.662;10.162;2023-07-08T01:44:21;9.63;;;4.68;;
28587;SDS011;15787;49.662;10.162;2023-07-08T01:46:56;9.77;;;5.10;;
28587;SDS011;15787;49.662;10.162;2023-07-08T01:49:35;11.85;;;4.63;;
28587;SDS011;15787;49.662;10.162;2023-07-08T01:52:10;7.45;;;4.65;;
28587;SDS011;15787;49.662;10.162;2023-07-08T01:54:48;8.32;;;4.53;;
28587;SDS011;15787;49.662;10.162;2023-07-08T01:57:27;9.52;;;4.55;;
28587;SDS011;15787;49.662;10.162;2023-07-08T02:00:00;8.55;;;4.25;;
28587;SDS011;15787;49.662;10.162;2023-07-08T02:02:43;11.20;;;4.80;;
28587;SDS011;15787;49.662;10.162;2023-07-08T02:05:16;7.68;;;4.57;;
28587;SDS011;15787;49.662;10.162;2023-07-08T02:07:49;9.30;;;5.25;;
28587;SDS011;15787;49.662;10.162;2023-07-08T02:10:24;7.20;;;4.50;;
28587;SDS011;15787;49.662;10.162;2023-07-08T02:12:57;9.25;;;4.57;;
28587;SDS011;15787;49.662;10.162;2023-07-08T02:15:31;7.22;;;4.82;;
28587;SDS011;15787;49.662;10.162;2023-07-08T02:18:04;8.60;;;4.93;;
28587;SDS011;15787;49.662;10.162;2023-07-08T02:20:37;9.85;;;4.57;;
28587;SDS011;15787;49.662;10.162;2023-07-08T02:23:10;6.75;;;4.90;;
28587;SDS011;15787;49.662;10.162;2023-07-08T02:25:51;10.00;;;5.60;;
28587;SDS011;15787;49.662;10.162;2023-07-08T02:28:24;9.35;;;4.50;;
28587;SDS011;15787;49.662;10.162;2023-07-08T02:31:01;9.13;;;5.20;;
28587;SDS011;15787;49.662;10.162;2023-07-08T02:33:34;10.40;;;5.20;;
28587;SDS011;15787;49.662;10.162;2023-07-08T02:36:07;12.10;;;5.97;;
28587;SDS011;15787;49.662;10.162;2023-07-08T02:38:40;8.00;;;5.22;;
28587;SDS011;15787;49.662;10.162;2023-07-08T02:41:15;10.25;;;4.90;;
28587;SDS011;15787;49.662;10.162;2023-07-08T02:43:48;11.55;;;5.50;;
28587;SDS011;15787;49.662;10.162;2023-07-08T02:46:21;11.35;;;5.53;;
28587;SDS011;15787;49.662;10.162;2023-07-08T02:48:54;10.82;;;5.20;;
28587;SDS011;15787;49.662;10.162;2023-07-08T02:51:27;7.90;;;4.90;;
28587;SDS011;15787;49.662;10.162;2023-07-08T02:54:00;8.25;;;4.80;;
28587;SDS011;15787;49.662;10.162;2023-07-08T02:56:34;9.73;;;5.07;;
28587;SDS011;15787;49.662;10.162;2023-07-08T02:59:07;9.18;;;5.53;;
28587;SDS011;15787;49.662;10.162;2023-07-08T03:01:40;8.55;;;5.15;;
28587;SDS011;15787;49.662;10.162;2023-07-08T03:04:13;10.38;;;5.15;;
28587;SDS011;15787;49.662;10.162;2023-07-08T03:06:47;9.30;;;5.22;;
28587;SDS011;15787;49.662;10.162;2023-07-08T03:09:22;10.43;;;5.38;;
28587;SDS011;15787;49.662;10.162;2023-07-08T03:11:57;8.13;;;4.88;;
28587;SDS011;15787;49.662;10.162;2023-07-08T03:14:30;9.32;;;5.32;;
28587;SDS011;15787;49.662;10.162;2023-07-08T03:17:04;10.98;;;5.65;;
28587;SDS011;15787;49.662;10.162;2023-07-08T03:19:37;12.38;;;6.55;;
28587;SDS011;15787;49.662;10.162;2023-07-08T03:22:10;10.15;;;6.25;;
28587;SDS011;15787;49.662;10.162;2023-07-08T03:24:44;11.50;;;6.10;;
28587;SDS011;15787;49.662;10.162;2023-07-08T03:27:22;10.40;;;5.22;;
28587;SDS011;15787;49.662;10.162;2023-07-08T03:29:56;10.95;;;5.47;;
28587;SDS011;15787;49.662;10.162;2023-07-08T03:32:29;8.18;;;5.32;;
28587;SDS011;15787;49.662;10.162;2023-07-08T03:35:03;12.52;;;6.22;;
28587;SDS011;15787;49.662;10.162;2023-07-08T03:37:36;7.28;;;4.70;;
28587;SDS011;15787;49.662;10.162;2023-07-08T03:40:10;9.90;;;5.75;;
28587;SDS011;15787;49.662;10.162;2023-07-08T03:42:45;11.80;;;5.55;;
28587;SDS011;15787;49.662;10.162;2023-07-08T03:45:18;12.40;;;5.15;;
28587;SDS011;15787;49.662;10.162;2023-07-08T03:47:51;12.82;;;5.85;;
28587;SDS011;15787;49.662;10.162;2023-07-08T03:50:25;10.57;;;5.53;;
28587;SDS011;15787;49.662;10.162;2023-07-08T03:52:58;9.43;;;5.35;;
28587;SDS011;15787;49.662;10.162;2023-07-08T03:55:33;12.32;;;5.65;;
28587;SDS011;15787;49.662;10.162;2023-07-08T03:58:09;9.10;;;5.35;;
28587;SDS011;15787;49.662;10.162;2023-07-08T04:00:42;10.25;;;5.13;;
28587;SDS011;15787;49.662;10.162;2023-07-08T04:03:15;10.43;;;5.47;;
28587;SDS011;15787;49.662;10.162;2023-07-08T04:05:49;9.40;;;5.65;;
28587;SDS011;15787;49.662;10.162;2023-07-08T04:08:21;10.38;;;5.90;;
28587;SDS011;15787;49.662;10.162;2023-07-08T04:10:54;9.57;;;5.07;;
28587;SDS011;15787;49.662;10.162;2023-07-08T04:13:29;10.48;;;5.45;;
28587;SDS011;15787;49.662;10.162;2023-07-08T04:16:05;8.30;;;5.55;;
28587;SDS011;15787;49.662;10.162;2023-07-08T04:18:40;8.27;;;5.10;;
28587;SDS011;15787;49.662;10.162;2023-07-08T04:21:13;9.10;;;5.53;;
28587;SDS011;15787;49.662;10.162;2023-07-08T04:23:48;10.13;;;5.45;;
28587;SDS011;15787;49.662;10.162;2023-07-08T04:26:21;10.60;;;6.18;;
28587;SDS011;15787;49.662;10.162;2023-07-08T04:28:56;9.73;;;5.72;;
28587;SDS011;15787;49.662;10.162;2023-07-08T04:31:29;7.88;;;5.05;;
28587;SDS011;15787;49.662;10.162;2023-07-08T04:34:02;8.23;;;5.32;;
28587;SDS011;15787;49.662;10.162;2023-07-08T04:36:34;8.68;;;5.45;;
28587;SDS011;15787;49.662;10.162;2023-07-08T04:39:08;9.25;;;6.07;;
28587;SDS011;15787;49.662;10.162;2023-07-08T04:41:41;9.70;;;5.63;;
28587;SDS011;15787;49.662;10.162;2023-07-08T04:44:17;9.30;;;5.40;;
28587;SDS011;15787;49.662;10.162;2023-07-08T04:46:51;9.52;;;5.93;;
28587;SDS011;15787;49.662;10.162;2023-07-08T04:49:27;11.13;;;6.25;;
28587;SDS011;15787;49.662;10.162;2023-07-08T04:52:05;10.45;;;6.63;;
28587;SDS011;15787;49.662;10.162;2023-07-08T04:54:38;8.88;;;6.65;;
28587;SDS011;15787;49.662;10.162;2023-07-08T04:57:11;9.80;;;6.32;;
28587;SDS011;15787;49.662;10.162;2023-07-08T04:59:45;10.95;;;6.65;;
28587;SDS011;15787;49.662;10.162;2023-07-08T05:02:18;10.52;;;6.65;;
28587;SDS011;15787;49.662;10.162;2023-07-08T05:04:51;9.73;;;6.38;;
28587;SDS011;15787;49.662;10.162;2023-07-08T05:07:24;14.43;;;6.43;;
28587;SDS011;15787;49.662;10.162;2023-07-08T05:09:57;11.30;;;6.60;;
28587;SDS011;15787;49.662;10.162;2023-07-08T05:12:30;12.20;;;6.80;;
28587;SDS011;15787;49.662;10.162;2023-07-08T05:15:05;10.00;;;6.40;;
28587;SDS011;15787;49.662;10.162;2023-07-08T05:17:38;11.27;;;6.15;;
28587;SDS011;15787;49.662;10.162;2023-07-08T05:20:13;12.00;;;7.30;;
28587;SDS011;15787;49.662;10.162;2023-07-08T05:22:47;14.15;;;8.15;;
28587;SDS011;15787;49.662;10.162;2023-07-08T05:25:19;14.20;;;7.75;;
28587;SDS011;15787;49.662;10.162;2023-07-08T05:27:53;9.77;;;7.10;;
28587;SDS011;15787;49.662;10.162;2023-07-08T05:30:27;14.20;;;7.07;;
28587;SDS011;15787;49.662;10.162;2023-07-08T05:33:00;13.50;;;7.70;;
28587;SDS011;15787;49.662;10.162;2023-07-08T05:35:33;12.18;;;7.43;;
28587;SDS011;15787;49.662;10.162;2023-07-08T05:38:06;15.10;;;7.72;;
28587;SDS011;15787;49.662;10.162;2023-07-08T05:40:39;10.95;;;7.35;;
28587;SDS011;15787;49.662;10.162;2023-07-08T05:43:12;13.23;;;8.05;;
28587;SDS011;15787;49.662;10.162;2023-07-08T05:45:47;10.60;;;7.10;;
28587;SDS011;15787;49.662;10.162;2023-07-08T05:48:36;11.52;;;6.72;;
28587;SDS011;15787;49.662;10.162;2023-07-08T05:51:09;11.25;;;6.18;;
28587;SDS011;15787;49.662;10.162;2023-07-08T05:53:42;10.48;;;6.68;;
28587;SDS011;15787;49.662;10.162;2023-07-08T05:56:15;12.10;;;6.93;;
28587;SDS011;15787;49.662;10.162;2023-07-08T05:58:48;11.02;;;5.93;;
28587;SDS011;15787;49.662;10.162;2023-07-08T06:01:22;9.43;;;5.93;;
28587;SDS011;15787;49.662;10.162;2023-07-08T06:03:55;11.38;;;6.20;;
28587;SDS011;15787;49.662;10.162;2023-07-08T06:06:30;10.05;;;6.57;;
28587;SDS011;15787;49.662;10.162;2023-07-08T06:09:03;8.60;;;5.70;;
28587;SDS011;15787;49.662;10.162;2023-07-08T06:11:35;10.63;;;6.30;;
28587;SDS011;15787;49.662;10.162;2023-07-08T06:14:08;9.00;;;5.95;;
28587;SDS011;15787;49.662;10.162;2023-07-08T06:16:43;13.45;;;6.57;;
28587;SDS011;15787;49.662;10.162;2023-07-08T06:19:17;8.55;;;5.72;;
28587;SDS011;15787;49.662;10.162;2023-07-08T06:21:51;9.10;;;5.78;;
28587;SDS011;15787;49.662;10.162;2023-07-08T06:24:24;8.13;;;4.97;;
28587;SDS011;15787;49.662;10.162;2023-07-08T06:26:57;8.80;;;5.72;;
28587;SDS011;15787;49.662;10.162;2023-07-08T06:29:30;11.30;;;5.97;;
28587;SDS011;15787;49.662;10.162;2023-07-08T06:32:04;8.88;;;5.88;;
28587;SDS011;15787;49.662;10.162;2023-07-08T06:34:38;7.68;;;5.35;;
28587;SDS011;15787;49.662;10.162;2023-07-08T06:37:11;6.85;;;4.90;;
28587;SDS011;15787;49.662;10.162;2023-07-08T06:39:44;8.10;;;5.78;;
28587;SDS011;15787;49.662;10.162;2023-07-08T06:42:17;8.52;;;4.97;;
28587;SDS011;15787;49.662;10.162;2023-07-08T06:44:59;6.18;;;4.47;;
28587;SDS011;15787;49.662;10.162;2023-07-08T06:47:33;7.18;;;4.53;;
28587;SDS011;15787;49.662;10.162;2023-07-08T06:50:07;7.07;;;4.45;;
28587;SDS011;15787;49.662;10.162;2023-07-08T06:52:40;7.07;;;4.75;;
28587;SDS011;15787;49.662;10.162;2023-07-08T06:55:13;7.05;;;4.63;;
28587;SDS011;15787;49.662;10.162;2023-07-08T06:57:46;9.60;;;4.38;;
28587;SDS011;15787;49.662;10.162;2023-07-08T07:00:19;7.47;;;4.32;;
28587;SDS011;15787;49.662;10.162;2023-07-08T07:02:53;7.05;;;4.13;;
28587;SDS011;15787;49.662;10.162;2023-07-08T07:05:26;8.05;;;4.00;;
28587;SDS011;15787;49.662;10.162;2023-07-08T07:07:59;6.00;;;4.10;;
28587;SDS011;15787;49.662;10.162;2023-07-08T07:10:33;5.40;;;3.80;;
28587;SDS011;15787;49.662;10.162;2023-07-08T07:13:08;9.13;;;3.65;;
28587;SDS011;15787;49.662;10.162;2023-07-08T07:15:41;7.70;;;3.85;;
28587;SDS011;15787;49.662;10.162;2023-07-08T07:18:15;5.78;;;3.63;;
28587;SDS011;15787;49.662;10.162;2023-07-08T07:20:52;7.18;;;4.03;;
28587;SDS011;15787;49.662;10.162;2023-07-08T07:23:26;6.05;;;3.90;;
28587;SDS011;15787;49.662;10.162;2023-07-08T07:25:59;6.82;;;3.75;;
28587;SDS011;15787;49.662;10.162;2023-07-08T07:28:32;5.40;;;3.47;;
28587;SDS011;15787;49.662;10.162;2023-07-08T07:31:05;7.63;;;3.78;;
28587;SDS011;15787;49.662;10.162;2023-07-08T07:33:40;8.43;;;4.25;;
28587;SDS011;15787;49.662;10.162;2023-07-08T07:36:13;5.82;;;3.55;;
28587;SDS011;15787;49.662;10.162;2023-07-08T07:38:46;5.88;;;3.70;;
28587;SDS011;15787;49.662;10.162;2023-07-08T07:41:19;5.72;;;3.95;;
28587;SDS011;15787;49.662;10.162;2023-07-08T07:43:52;6.10;;;3.70;;
28587;SDS011;15787;49.662;10.162;2023-07-08T07:46:24;7.47;;;3.97;;
28587;SDS011;15787;49.662;10.162;2023-07-08T07:48:59;5.85;;;3.60;;
28587;SDS011;15787;49.662;10.162;2023-07-08T07:51:32;5.95;;;3.70;;
28587;SDS011;15787;49.662;10.162;2023-07-08T07:54:05;5.45;;;3.63;;
28587;SDS011;15787;49.662;10.162;2023-07-08T07:56:38;7.93;;;4.00;;
28587;SDS011;15787;49.662;10.162;2023-07-08T07:59:11;5.00;;;3.63;;
28587;SDS011;15787;49.662;10.162;2023-07-08T08:01:43;7.38;;;3.92;;
28587;SDS011;15787;49.662;10.162;2023-07-08T08:04:18;6.00;;;3.35;;
28587;SDS011;15787;49.662;10.162;2023-07-08T08:06:50;6.38;;;3.50;;
28587;SDS011;15787;49.662;10.162;2023-07-08T08:09:23;7.85;;;3.72;;
28587;SDS011;15787;49.662;10.162;2023-07-08T08:11:56;6.30;;;3.63;;
28587;SDS011;15787;49.662;10.162;2023-07-08T08:14:29;6.78;;;4.03;;
28587;SDS011;15787;49.662;10.162;2023-07-08T08:17:02;5.35;;;3.60;;
28587;SDS011;15787;49.662;10.162;2023-07-08T08:19:37;5.82;;;4.05;;
28587;SDS011;15787;49.662;10.162;2023-07-08T08:22:10;6.32;;;3.72;;
28587;SDS011;15787;49.662;10.162;2023-07-08T08:24:43;10.35;;;3.80;;
28587;SDS011;15787;49.662;10.162;2023-07-08T08:27:15;8.35;;;3.80;;
28587;SDS011;15787;49.662;10.162;2023-07-08T08:29:48;6.70;;;3.92;;
28587;SDS011;15787;49.662;10.162;2023-07-08T08:32:21;7.43;;;3.38;;
28587;SDS011;15787;49.662;10.162;2023-07-08T08:34:56;6.45;;;3.50;;
28587;SDS011;15787;49.662;10.162;2023-07-08T08:37:31;6.18;;;4.10;;
28587;SDS011;15787;49.662;10.162;2023-07-08T08:40:05;6.05;;;3.55;;
28587;SDS011;15787;49.662;10.162;2023-07-08T08:42:40;5.28;;;3.70;;
28587;SDS011;15787;49.662;10.162;2023-07-08T08:45:18;5.32;;;3.30;;
28587;SDS011;15787;49.662;10.162;2023-07-08T08:47:53;5.57;;;3.60;;
28587;SDS011;15787;49.662;10.162;2023-07-08T08:50:33;5.05;;;3.72;;
28587;SDS011;15787;49.662;10.162;2023-07-08T08:53:15;5.57;;;3.20;;
28587;SDS011;15787;49.662;10.162;2023-07-08T08:55:50;5.95;;;3.83;;
28587;SDS011;15787;49.662;10.162;2023-07-08T08:58:30;4.95;;;3.53;;
28587;SDS011;15787;49.662;10.162;2023-07-08T09:01:10;5.07;;;3.08;;
28587;SDS011;15787;49.662;10.162;2023-07-08T09:03:46;4.63;;;3.15;;
28587;SDS011;15787;49.662;10.162;2023-07-08T09:06:24;4.00;;;3.00;;
28587;SDS011;15787;49.662;10.162;2023-07-08T09:09:00;7.47;;;3.65;;
28587;SDS011;15787;49.662;10.162;2023-07-08T09:11:39;4.57;;;3.17;;
28587;SDS011;15787;49.662;10.162;2023-07-08T09:14:18;5.20;;;3.45;;
28587;SDS011;15787;49.662;10.162;2023-07-08T09:19:35;4.75;;;3.38;;
28587;SDS011;15787;49.662;10.162;2023-07-08T09:22:15;4.97;;;3.25;;
28587;SDS011;15787;49.662;10.162;2023-07-08T09:24:54;5.28;;;3.58;;
28587;SDS011;15787;49.662;10.162;2023-07-08T09:27:31;7.32;;;3.88;;
28587;SDS011;15787;49.662;10.162;2023-07-08T09:30:04;6.95;;;3.15;;
28587;SDS011;15787;49.662;10.162;2023-07-08T09:32:41;7.28;;;3.30;;
28587;SDS011;15787;49.662;10.162;2023-07-08T09:35:16;4.80;;;3.30;;
28587;SDS011;15787;49.662;10.162;2023-07-08T09:37:52;6.18;;;3.22;;
28587;SDS011;15787;49.662;10.162;2023-07-08T09:40:28;6.13;;;3.30;;
28587;SDS011;15787;49.662;10.162;2023-07-08T09:43:11;4.22;;;3.22;;
28587;SDS011;15787;49.662;10.162;2023-07-08T09:45:50;5.38;;;3.47;;
28587;SDS011;15787;49.662;10.162;2023-07-08T09:48:24;5.57;;;3.70;;
28587;SDS011;15787;49.662;10.162;2023-07-08T09:50:59;4.38;;;3.20;;
28587;SDS011;15787;49.662;10.162;2023-07-08T09:53:34;5.82;;;3.60;;
28587;SDS011;15787;49.662;10.162;2023-07-08T09:56:08;8.43;;;3.85;;
28587;SDS011;15787;49.662;10.162;2023-07-08T09:58:41;4.90;;;3.42;;
28587;SDS011;15787;49.662;10.162;2023-07-08T10:01:17;5.03;;;3.28;;
28587;SDS011;15787;49.662;10.162;2023-07-08T10:06:30;7.20;;;3.50;;
28587;SDS011;15787;49.662;10.162;2023-07-08T10:09:10;5.95;;;4.05;;
28587;SDS011;15787;49.662;10.162;2023-07-08T10:11:51;5.30;;;3.38;;
28587;SDS011;15787;49.662;10.162;2023-07-08T10:14:29;7.32;;;3.40;;
28587;SDS011;15787;49.662;10.162;2023-07-08T10:17:09;5.47;;;3.40;;
28587;SDS011;15787;49.662;10.162;2023-07-08T10:19:47;5.55;;;3.15;;
28587;SDS011;15787;49.662;10.162;2023-07-08T10:22:31;7.03;;;3.38;;
28587;SDS011;15787;49.662;10.162;2023-07-08T10:25:20;5.35;;;3.50;;
28587;SDS011;15787;49.662;10.162;2023-07-08T10:28:03;5.53;;;3.20;;
28587;SDS011;15787;49.662;10.162;2023-07-08T10:30:57;4.93;;;3.30;;
28587;SDS011;15787;49.662;10.162;2023-07-08T10:33:38;5.60;;;3.58;;
28587;SDS011;15787;49.662;10.162;2023-07-08T10:36:25;7.47;;;3.97;;
28587;SDS011;15787;49.662;10.162;2023-07-08T10:39:12;6.95;;;4.15;;
28587;SDS011;15787;49.662;10.162;2023-07-08T10:42:09;5.78;;;3.90;;
28587;SDS011;15787;49.662;10.162;2023-07-08T10:44:52;4.50;;;3.20;;
28587;SDS011;15787;49.662;10.162;2023-07-08T10:47:39;7.07;;;3.35;;
28587;SDS011;15787;49.662;10.162;2023-07-08T10:50:29;6.45;;;3.10;;
28587;SDS011;15787;49.662;10.162;2023-07-08T10:53:21;4.28;;;3.00;;
28587;SDS011;15787;49.662;10.162;2023-07-08T10:56:05;6.43;;;3.47;;
28587;SDS011;15787;49.662;10.162;2023-07-08T10:58:49;5.25;;;3.05;;
28587;SDS011;15787;49.662;10.162;2023-07-08T11:01:39;10.75;;;3.97;;
28587;SDS011;15787;49.662;10.162;2023-07-08T11:04:24;6.05;;;3.03;;
28587;SDS011;15787;49.662;10.162;2023-07-08T11:07:09;6.30;;;3.95;;
28587;SDS011;15787;49.662;10.162;2023-07-08T11:09:49;9.02;;;3.50;;
28587;SDS011;15787;49.662;10.162;2023-07-08T11:12:26;9.40;;;3.97;;
28587;SDS011;15787;49.662;10.162;2023-07-08T11:15:07;11.50;;;4.47;;
28587;SDS011;15787;49.662;10.162;2023-07-08T11:17:49;5.22;;;3.30;;
28587;SDS011;15787;49.662;10.162;2023-07-08T11:20:28;5.43;;;3.60;;
28587;SDS011;15787;49.662;10.162;2023-07-08T11:23:10;5.15;;;3.65;;
28587;SDS011;15787;49.662;10.162;2023-07-08T11:25:54;7.95;;;3.35;;
28587;SDS011;15787;49.662;10.162;2023-07-08T11:28:37;6.05;;;3.58;;
28587;SDS011;15787;49.662;10.162;2023-07-08T11:31:11;6.85;;;4.03;;
28587;SDS011;15787;49.662;10.162;2023-07-08T11:33:46;6.82;;;3.63;;
28587;SDS011;15787;49.662;10.162;2023-07-08T11:36:20;6.78;;;3.92;;
28587;SDS011;15787;49.662;10.162;2023-07-08T11:38:55;5.55;;;3.45;;
28587;SDS011;15787;49.662;10.162;2023-07-08T11:41:31;4.70;;;3.20;;
28587;SDS011;15787;49.662;10.162;2023-07-08T11:44:04;5.65;;;3.08;;
28587;SDS011;15787;49.662;10.162;2023-07-08T11:46:40;6.35;;;3.65;;
28587;SDS011;15787;49.662;10.162;2023-07-08T11:49:26;6.90;;;3.97;;
28587;SDS011;15787;49.662;10.162;2023-07-08T11:51:59;8.25;;;3.33;;
28587;SDS011;15787;49.662;10.162;2023-07-08T11:54:35;6.85;;;4.13;;
28587;SDS011;15787;49.662;10.162;2023-07-08T11:57:14;6.68;;;3.50;;
28587;SDS011;15787;49.662;10.162;2023-07-08T12:00:05;5.20;;;3.40;;
28587;SDS011;15787;49.662;10.162;2023-07-08T12:02:48;6.35;;;3.40;;
28587;SDS011;15787;49.662;10.162;2023-07-08T12:05:30;10.93;;;3.55;;
28587;SDS011;15787;49.662;10.162;2023-07-08T12:08:11;9.75;;;3.58;;
28587;SDS011;15787;49.662;10.162;2023-07-08T12:10:47;6.97;;;3.70;;
28587;SDS011;15787;49.662;10.162;2023-07-08T12:13:23;5.45;;;3.90;;
28587;SDS011;15787;49.662;10.162;2023-07-08T12:16:00;9.02;;;4.03;;
28587;SDS011;15787;49.662;10.162;2023-07-08T12:18:35;6.18;;;3.90;;
28587;SDS011;15787;49.662;10.162;2023-07-08T12:21:17;7.70;;;3.80;;
28587;SDS011;15787;49.662;10.162;2023-07-08T12:23:50;8.55;;;3.80;;
28587;SDS011;15787;49.662;10.162;2023-07-08T12:26:23;8.43;;;3.63;;
28587;SDS011;15787;49.662;10.162;2023-07-08T12:28:56;10.60;;;3.78;;
28587;SDS011;15787;49.662;10.162;2023-07-08T12:31:29;13.73;;;3.97;;
28587;SDS011;15787;49.662;10.162;2023-07-08T12:34:06;6.70;;;4.03;;
28587;SDS011;15787;49.662;10.162;2023-07-08T12:36:44;7.20;;;3.97;;
28587;SDS011;15787;49.662;10.162;2023-07-08T12:39:18;7.10;;;4.15;;
28587;SDS011;15787;49.662;10.162;2023-07-08T12:41:51;7.55;;;3.85;;
28587;SDS011;15787;49.662;10.162;2023-07-08T12:44:25;5.82;;;3.70;;
28587;SDS011;15787;49.662;10.162;2023-07-08T12:47:00;8.00;;;4.20;;
28587;SDS011;15787;49.662;10.162;2023-07-08T12:49:36;9.63;;;4.78;;
28587;SDS011;15787;49.662;10.162;2023-07-08T12:52:18;13.30;;;5.25;;
28587;SDS011;15787;49.662;10.162;2023-07-08T12:54:55;8.57;;;4.68;;
28587;SDS011;15787;49.662;10.162;2023-07-08T12:57:36;6.95;;;4.90;;
28587;SDS011;15787;49.662;10.162;2023-07-08T13:00:11;7.13;;;4.70;;
28587;SDS011;15787;49.662;10.162;2023-07-08T13:02:47;8.23;;;4.70;;
28587;SDS011;15787;49.662;10.162;2023-07-08T13:05:27;8.18;;;4.13;;
28587;SDS011;15787;49.662;10.162;2023-07-08T13:08:00;6.90;;;4.68;;
28587;SDS011;15787;49.662;10.162;2023-07-08T13:10:34;8.13;;;5.15;;
28587;SDS011;15787;49.662;10.162;2023-07-08T13:13:08;8.27;;;4.85;;
28587;SDS011;15787;49.662;10.162;2023-07-08T13:15:46;8.05;;;4.97;;
28587;SDS011;15787;49.662;10.162;2023-07-08T13:18:21;5.97;;;4.50;;
28587;SDS011;15787;49.662;10.162;2023-07-08T13:20:57;6.72;;;4.82;;
28587;SDS011;15787;49.662;10.162;2023-07-08T13:23:32;6.38;;;4.47;;
28587;SDS011;15787;49.662;10.162;2023-07-08T13:26:12;8.15;;;4.68;;
28587;SDS011;15787;49.662;10.162;2023-07-08T13:28:46;6.78;;;4.55;;
28587;SDS011;15787;49.662;10.162;2023-07-08T13:31:21;7.70;;;4.07;;
28587;SDS011;15787;49.662;10.162;2023-07-08T13:33:56;7.32;;;3.97;;
28587;SDS011;15787;49.662;10.162;2023-07-08T13:36:32;6.00;;;3.78;;
28587;SDS011;15787;49.662;10.162;2023-07-08T13:39:08;8.32;;;4.65;;
28587;SDS011;15787;49.662;10.162;2023-07-08T13:41:42;6.97;;;3.70;;
28587;SDS011;15787;49.662;10.162;2023-07-08T13:44:16;6.90;;;4.18;;
28587;SDS011;15787;49.662;10.162;2023-07-08T13:46:53;5.70;;;4.30;;
28587;SDS011;15787;49.662;10.162;2023-07-08T13:49:28;8.13;;;4.68;;
28587;SDS011;15787;49.662;10.162;2023-07-08T13:52:08;7.05;;;4.05;;
28587;SDS011;15787;49.662;10.162;2023-07-08T13:54:50;7.57;;;4.10;;
28587;SDS011;15787;49.662;10.162;2023-07-08T13:57:28;9.68;;;4.78;;
28587;SDS011;15787;49.662;10.162;2023-07-08T14:00:05;5.85;;;4.28;;
28587;SDS011;15787;49.662;10.162;2023-07-08T14:02:43;6.93;;;4.13;;
28587;SDS011;15787;49.662;10.162;2023-07-08T14:05:17;7.55;;;4.18;;
28587;SDS011;15787;49.662;10.162;2023-07-08T14:07:54;5.97;;;3.90;;
28587;SDS011;15787;49.662;10.162;2023-07-08T14:10:27;7.82;;;3.47;;
28587;SDS011;15787;49.662;10.162;2023-07-08T14:12:59;9.50;;;4.03;;
28587;SDS011;15787;49.662;10.162;2023-07-08T14:15:32;7.60;;;4.18;;
28587;SDS011;15787;49.662;10.162;2023-07-08T14:18:06;7.57;;;4.57;;
28587;SDS011;15787;49.662;10.162;2023-07-08T14:20:42;7.72;;;3.85;;
28587;SDS011;15787;49.662;10.162;2023-07-08T14:23:16;8.13;;;3.67;;
28587;SDS011;15787;49.662;10.162;2023-07-08T14:25:50;7.82;;;4.20;;
28587;SDS011;15787;49.662;10.162;2023-07-08T14:28:23;6.93;;;4.05;;
28587;SDS011;15787;49.662;10.162;2023-07-08T14:30:56;5.10;;;3.78;;
28587;SDS011;15787;49.662;10.162;2023-07-08T14:33:32;7.40;;;4.15;;
28587;SDS011;15787;49.662;10.162;2023-07-08T14:36:07;7.20;;;3.47;;
28587;SDS011;15787;49.662;10.162;2023-07-08T14:38:42;8.05;;;4.00;;
28587;SDS011;15787;49.662;10.162;2023-07-08T14:41:14;5.53;;;3.47;;
28587;SDS011;15787;49.662;10.162;2023-07-08T14:43:47;6.47;;;3.78;;
28587;SDS011;15787;49.662;10.162;2023-07-08T14:46:20;6.43;;;3.88;;
28587;SDS011;15787;49.662;10.162;2023-07-08T14:48:53;10.07;;;4.43;;
28587;SDS011;15787;49.662;10.162;2023-07-08T14:51:26;5.95;;;3.15;;
28587;SDS011;15787;49.662;10.162;2023-07-08T14:54:00;6.82;;;3.83;;
28587;SDS011;15787;49.662;10.162;2023-07-08T14:56:33;13.32;;;4.78;;
28587;SDS011;15787;49.662;10.162;2023-07-08T14:59:07;8.35;;;4.28;;
28587;SDS011;15787;49.662;10.162;2023-07-08T15:01:47;8.18;;;3.92;;
28587;SDS011;15787;49.662;10.162;2023-07-08T15:04:21;6.18;;;4.18;;
28587;SDS011;15787;49.662;10.162;2023-07-08T15:06:54;6.03;;;3.80;;
28587;SDS011;15787;49.662;10.162;2023-07-08T15:09:33;6.80;;;3.72;;
28587;SDS011;15787;49.662;10.162;2023-07-08T15:12:08;7.80;;;4.03;;
28587;SDS011;15787;49.662;10.162;2023-07-08T15:14:42;6.80;;;3.72;;
28587;SDS011;15787;49.662;10.162;2023-07-08T15:17:15;4.90;;;3.58;;
28587;SDS011;15787;49.662;10.162;2023-07-08T15:19:49;7.53;;;3.78;;
28587;SDS011;15787;49.662;10.162;2023-07-08T15:22:21;8.30;;;3.97;;
28587;SDS011;15787;49.662;10.162;2023-07-08T15:24:56;7.15;;;4.65;;